KORD/ORD METAR and TAF weather

Enter ICAO airport designator
Station Type Date Time Source
KORD METAR 2018/12/13 07:51 UTC NOAA

KORD 130751Z 00000KT 6SM BR CLR M03/M04 A2998 RMK AO2 SLP159 T10281044


Station Type Date Time Source
KORD Decoded METAR 2018/12/13 07:51 UTC NOAA

CHICAGO O'HARE INTERNATIONAL, IL, United States (KORD) 41-59N 087-55W 200M
Dec 13, 2018 - 02:51 AM EST / 2018.12.13 0751 UTC
Wind: Calm:0
Visibility: 6 mile(s):0
Sky conditions: clear
Weather: mist
Temperature: 27.0 F (-2.8 C)
Dew Point: 24.1 F (-4.4 C)
Relative Humidity: 88%
Pressure (altimeter): 29.98 in. Hg (1015 hPa)
ob: KORD 130751Z 00000KT 6SM BR CLR M03/M04 A2998 RMK AO2 SLP159 T10281044
cycle: 8

Station Type Date Time Source
KORD TAF 2018/12/13 06:39 UTC NOAA

TAF KORD 130536Z 1306/1412 VRB04KT P6SM FEW035 BKN200
FM131300 15007KT P6SM FEW035 BKN200
FM132200 13008KT P6SM BKN015
FM140100 08008KT 5SM -RA BR SCT004 OVC008


Example: see airport list